sensor_id;sensor_type;location;lat;lon;timestamp;P1;durP1;ratioP1;P2;durP2;ratioP2
43628;SDS011;56545;48.224;11.678;2023-03-01T00:00:21;19.10;;;13.65;;
43628;SDS011;56545;48.224;11.678;2023-03-01T00:02:47;20.02;;;13.57;;
43628;SDS011;56545;48.224;11.678;2023-03-01T00:05:13;19.75;;;13.55;;
43628;SDS011;56545;48.224;11.678;2023-03-01T00:07:39;19.73;;;13.38;;
43628;SDS011;56545;48.224;11.678;2023-03-01T00:10:05;18.65;;;13.02;;
43628;SDS011;56545;48.224;11.678;2023-03-01T00:12:31;18.27;;;13.20;;
43628;SDS011;56545;48.224;11.678;2023-03-01T00:14:57;21.50;;;13.90;;
43628;SDS011;56545;48.224;11.678;2023-03-01T00:17:23;18.73;;;13.55;;
43628;SDS011;56545;48.224;11.678;2023-03-01T00:19:49;19.35;;;13.95;;
43628;SDS011;56545;48.224;11.678;2023-03-01T00:22:15;21.95;;;14.00;;
43628;SDS011;56545;48.224;11.678;2023-03-01T00:24:41;18.80;;;13.05;;
43628;SDS011;56545;48.224;11.678;2023-03-01T00:27:07;18.75;;;13.65;;
43628;SDS011;56545;48.224;11.678;2023-03-01T00:29:32;21.70;;;13.73;;
43628;SDS011;56545;48.224;11.678;2023-03-01T00:31:59;18.98;;;13.38;;
43628;SDS011;56545;48.224;11.678;2023-03-01T00:34:24;22.38;;;14.13;;
43628;SDS011;56545;48.224;11.678;2023-03-01T00:36:50;20.05;;;13.60;;
43628;SDS011;56545;48.224;11.678;2023-03-01T00:39:16;20.15;;;13.20;;
43628;SDS011;56545;48.224;11.678;2023-03-01T00:41:42;18.92;;;13.68;;
43628;SDS011;56545;48.224;11.678;2023-03-01T00:44:09;20.70;;;13.65;;
43628;SDS011;56545;48.224;11.678;2023-03-01T00:46:35;18.17;;;13.07;;
43628;SDS011;56545;48.224;11.678;2023-03-01T00:49:02;20.13;;;13.95;;
43628;SDS011;56545;48.224;11.678;2023-03-01T00:51:29;20.10;;;13.23;;
43628;SDS011;56545;48.224;11.678;2023-03-01T00:53:56;18.10;;;13.18;;
43628;SDS011;56545;48.224;11.678;2023-03-01T00:56:24;18.55;;;13.63;;
43628;SDS011;56545;48.224;11.678;2023-03-01T00:58:51;20.05;;;13.60;;
43628;SDS011;56545;48.224;11.678;2023-03-01T01:01:25;19.23;;;13.52;;
43628;SDS011;56545;48.224;11.678;2023-03-01T01:03:57;17.30;;;13.13;;
43628;SDS011;56545;48.224;11.678;2023-03-01T01:06:26;19.70;;;12.90;;
43628;SDS011;56545;48.224;11.678;2023-03-01T01:08:54;18.88;;;13.02;;
43628;SDS011;56545;48.224;11.678;2023-03-01T01:11:21;18.55;;;13.07;;
43628;SDS011;56545;48.224;11.678;2023-03-01T01:13:48;20.33;;;13.65;;
43628;SDS011;56545;48.224;11.678;2023-03-01T01:16:15;21.17;;;14.77;;
43628;SDS011;56545;48.224;11.678;2023-03-01T01:18:42;19.25;;;13.45;;
43628;SDS011;56545;48.224;11.678;2023-03-01T01:21:09;17.90;;;12.80;;
43628;SDS011;56545;48.224;11.678;2023-03-01T01:23:38;19.73;;;13.93;;
43628;SDS011;56545;48.224;11.678;2023-03-01T01:26:09;20.35;;;13.13;;
43628;SDS011;56545;48.224;11.678;2023-03-01T01:28:36;18.80;;;13.00;;
43628;SDS011;56545;48.224;11.678;2023-03-01T01:31:03;19.80;;;13.38;;
43628;SDS011;56545;48.224;11.678;2023-03-01T01:33:30;20.02;;;13.63;;
43628;SDS011;56545;48.224;11.678;2023-03-01T01:35:56;21.00;;;12.85;;
43628;SDS011;56545;48.224;11.678;2023-03-01T01:38:21;20.80;;;13.40;;
43628;SDS011;56545;48.224;11.678;2023-03-01T01:40:48;19.40;;;13.77;;
43628;SDS011;56545;48.224;11.678;2023-03-01T01:43:22;20.65;;;13.00;;
43628;SDS011;56545;48.224;11.678;2023-03-01T01:45:55;18.52;;;13.10;;
43628;SDS011;56545;48.224;11.678;2023-03-01T01:48:26;19.42;;;13.38;;
43628;SDS011;56545;48.224;11.678;2023-03-01T01:51:05;19.02;;;13.60;;
43628;SDS011;56545;48.224;11.678;2023-03-01T01:53:40;19.42;;;13.55;;
43628;SDS011;56545;48.224;11.678;2023-03-01T01:56:08;18.73;;;13.80;;
43628;SDS011;56545;48.224;11.678;2023-03-01T01:58:36;20.60;;;13.55;;
43628;SDS011;56545;48.224;11.678;2023-03-01T02:01:03;17.08;;;12.90;;
43628;SDS011;56545;48.224;11.678;2023-03-01T02:03:30;20.77;;;13.25;;
43628;SDS011;56545;48.224;11.678;2023-03-01T02:06:12;18.83;;;13.45;;
43628;SDS011;56545;48.224;11.678;2023-03-01T02:08:41;17.63;;;13.18;;
43628;SDS011;56545;48.224;11.678;2023-03-01T02:11:09;21.50;;;13.63;;
43628;SDS011;56545;48.224;11.678;2023-03-01T02:13:39;19.50;;;13.60;;
43628;SDS011;56545;48.224;11.678;2023-03-01T02:16:08;19.75;;;13.05;;
43628;SDS011;56545;48.224;11.678;2023-03-01T02:18:37;18.65;;;13.02;;
43628;SDS011;56545;48.224;11.678;2023-03-01T02:23:58;19.23;;;13.27;;
43628;SDS011;56545;48.224;11.678;2023-03-01T02:26:40;19.50;;;13.65;;
43628;SDS011;56545;48.224;11.678;2023-03-01T02:29:17;19.20;;;13.02;;
43628;SDS011;56545;48.224;11.678;2023-03-01T02:31:43;21.67;;;13.65;;
43628;SDS011;56545;48.224;11.678;2023-03-01T02:34:14;20.70;;;14.68;;
43628;SDS011;56545;48.224;11.678;2023-03-01T02:36:46;20.25;;;13.77;;
43628;SDS011;56545;48.224;11.678;2023-03-01T02:39:17;18.42;;;13.05;;
43628;SDS011;56545;48.224;11.678;2023-03-01T02:41:48;19.02;;;13.35;;
43628;SDS011;56545;48.224;11.678;2023-03-01T02:44:16;17.30;;;12.80;;
43628;SDS011;56545;48.224;11.678;2023-03-01T02:46:47;20.40;;;13.40;;
43628;SDS011;56545;48.224;11.678;2023-03-01T02:49:19;18.70;;;13.17;;
43628;SDS011;56545;48.224;11.678;2023-03-01T02:55:07;20.98;;;14.48;;
43628;SDS011;56545;48.224;11.678;2023-03-01T02:57:37;19.63;;;13.60;;
43628;SDS011;56545;48.224;11.678;2023-03-01T03:00:12;18.48;;;13.57;;
43628;SDS011;56545;48.224;11.678;2023-03-01T03:02:47;20.83;;;14.00;;
43628;SDS011;56545;48.224;11.678;2023-03-01T03:05:16;19.27;;;13.93;;
43628;SDS011;56545;48.224;11.678;2023-03-01T03:07:44;19.20;;;14.18;;
43628;SDS011;56545;48.224;11.678;2023-03-01T03:10:12;18.95;;;13.43;;
43628;SDS011;56545;48.224;11.678;2023-03-01T03:12:52;19.02;;;13.32;;
43628;SDS011;56545;48.224;11.678;2023-03-01T03:15:24;19.85;;;13.88;;
43628;SDS011;56545;48.224;11.678;2023-03-01T03:17:51;19.23;;;13.93;;
43628;SDS011;56545;48.224;11.678;2023-03-01T03:20:18;20.17;;;14.55;;
43628;SDS011;56545;48.224;11.678;2023-03-01T03:22:47;21.73;;;14.30;;
43628;SDS011;56545;48.224;11.678;2023-03-01T03:25:15;20.77;;;14.13;;
43628;SDS011;56545;48.224;11.678;2023-03-01T03:27:43;19.75;;;13.95;;
43628;SDS011;56545;48.224;11.678;2023-03-01T03:30:12;19.30;;;14.05;;
43628;SDS011;56545;48.224;11.678;2023-03-01T03:32:41;20.55;;;14.40;;
43628;SDS011;56545;48.224;11.678;2023-03-01T03:35:17;19.95;;;13.77;;
43628;SDS011;56545;48.224;11.678;2023-03-01T03:37:49;20.60;;;14.40;;
43628;SDS011;56545;48.224;11.678;2023-03-01T03:40:29;19.42;;;14.00;;
43628;SDS011;56545;48.224;11.678;2023-03-01T03:43:09;20.75;;;13.85;;
43628;SDS011;56545;48.224;11.678;2023-03-01T03:45:37;20.65;;;14.18;;
43628;SDS011;56545;48.224;11.678;2023-03-01T03:48:03;21.25;;;14.15;;
43628;SDS011;56545;48.224;11.678;2023-03-01T03:50:31;20.17;;;13.68;;
43628;SDS011;56545;48.224;11.678;2023-03-01T03:52:59;19.13;;;13.25;;
43628;SDS011;56545;48.224;11.678;2023-03-01T03:55:26;19.40;;;13.52;;
43628;SDS011;56545;48.224;11.678;2023-03-01T03:57:56;18.63;;;13.48;;
43628;SDS011;56545;48.224;11.678;2023-03-01T04:00:26;21.25;;;13.70;;
43628;SDS011;56545;48.224;11.678;2023-03-01T04:02:53;19.02;;;13.30;;
43628;SDS011;56545;48.224;11.678;2023-03-01T04:05:22;20.20;;;13.60;;
43628;SDS011;56545;48.224;11.678;2023-03-01T04:07:48;20.48;;;13.65;;
43628;SDS011;56545;48.224;11.678;2023-03-01T04:10:15;21.95;;;14.75;;
43628;SDS011;56545;48.224;11.678;2023-03-01T04:12:42;19.75;;;13.98;;
43628;SDS011;56545;48.224;11.678;2023-03-01T04:15:09;20.05;;;13.43;;
43628;SDS011;56545;48.224;11.678;2023-03-01T04:17:39;18.63;;;13.20;;
43628;SDS011;56545;48.224;11.678;2023-03-01T04:20:07;22.52;;;14.18;;
43628;SDS011;56545;48.224;11.678;2023-03-01T04:22:37;18.33;;;13.32;;
43628;SDS011;56545;48.224;11.678;2023-03-01T04:25:04;19.70;;;13.68;;
43628;SDS011;56545;48.224;11.678;2023-03-01T04:27:32;20.75;;;14.43;;
43628;SDS011;56545;48.224;11.678;2023-03-01T04:29:59;21.70;;;13.60;;
43628;SDS011;56545;48.224;11.678;2023-03-01T04:32:25;20.83;;;13.85;;
43628;SDS011;56545;48.224;11.678;2023-03-01T04:34:51;18.63;;;13.93;;
43628;SDS011;56545;48.224;11.678;2023-03-01T04:37:17;20.00;;;14.20;;
43628;SDS011;56545;48.224;11.678;2023-03-01T04:39:42;20.35;;;13.52;;
43628;SDS011;56545;48.224;11.678;2023-03-01T04:42:12;20.10;;;13.73;;
43628;SDS011;56545;48.224;11.678;2023-03-01T04:44:38;20.95;;;14.50;;
43628;SDS011;56545;48.224;11.678;2023-03-01T04:47:05;19.98;;;13.73;;
43628;SDS011;56545;48.224;11.678;2023-03-01T04:49:31;20.60;;;13.70;;
43628;SDS011;56545;48.224;11.678;2023-03-01T04:51:57;20.42;;;13.85;;
43628;SDS011;56545;48.224;11.678;2023-03-01T04:54:27;18.90;;;13.70;;
43628;SDS011;56545;48.224;11.678;2023-03-01T04:56:54;21.20;;;13.95;;
43628;SDS011;56545;48.224;11.678;2023-03-01T04:59:20;19.38;;;13.73;;
43628;SDS011;56545;48.224;11.678;2023-03-01T05:01:50;20.35;;;14.13;;
43628;SDS011;56545;48.224;11.678;2023-03-01T05:04:16;22.65;;;14.38;;
43628;SDS011;56545;48.224;11.678;2023-03-01T05:06:42;18.90;;;13.73;;
43628;SDS011;56545;48.224;11.678;2023-03-01T05:09:09;20.90;;;14.05;;
43628;SDS011;56545;48.224;11.678;2023-03-01T05:11:36;20.30;;;13.15;;
43628;SDS011;56545;48.224;11.678;2023-03-01T05:14:03;19.35;;;14.10;;
43628;SDS011;56545;48.224;11.678;2023-03-01T05:16:29;21.40;;;15.00;;
43628;SDS011;56545;48.224;11.678;2023-03-01T05:18:57;20.42;;;13.70;;
43628;SDS011;56545;48.224;11.678;2023-03-01T05:21:23;21.98;;;14.13;;
43628;SDS011;56545;48.224;11.678;2023-03-01T05:23:50;21.10;;;14.77;;
43628;SDS011;56545;48.224;11.678;2023-03-01T05:26:17;22.52;;;14.35;;
43628;SDS011;56545;48.224;11.678;2023-03-01T05:28:44;19.55;;;13.48;;
43628;SDS011;56545;48.224;11.678;2023-03-01T05:31:10;19.20;;;13.43;;
43628;SDS011;56545;48.224;11.678;2023-03-01T05:33:36;21.48;;;13.98;;
43628;SDS011;56545;48.224;11.678;2023-03-01T05:36:03;20.33;;;14.05;;
43628;SDS011;56545;48.224;11.678;2023-03-01T05:38:30;22.23;;;14.95;;
43628;SDS011;56545;48.224;11.678;2023-03-01T05:40:56;21.63;;;14.40;;
43628;SDS011;56545;48.224;11.678;2023-03-01T05:43:22;23.50;;;14.45;;
43628;SDS011;56545;48.224;11.678;2023-03-01T05:45:48;21.67;;;14.18;;
43628;SDS011;56545;48.224;11.678;2023-03-01T05:48:14;21.63;;;14.23;;
43628;SDS011;56545;48.224;11.678;2023-03-01T05:50:40;21.92;;;15.02;;
43628;SDS011;56545;48.224;11.678;2023-03-01T05:53:18;21.50;;;14.15;;
43628;SDS011;56545;48.224;11.678;2023-03-01T05:55:48;19.85;;;13.43;;
43628;SDS011;56545;48.224;11.678;2023-03-01T05:58:15;19.35;;;14.07;;
43628;SDS011;56545;48.224;11.678;2023-03-01T06:00:43;22.05;;;14.35;;
43628;SDS011;56545;48.224;11.678;2023-03-01T06:03:11;21.70;;;13.77;;
43628;SDS011;56545;48.224;11.678;2023-03-01T06:05:39;20.17;;;14.55;;
43628;SDS011;56545;48.224;11.678;2023-03-01T06:08:06;20.85;;;14.32;;
43628;SDS011;56545;48.224;11.678;2023-03-01T06:10:34;19.23;;;13.73;;
43628;SDS011;56545;48.224;11.678;2023-03-01T06:13:00;20.75;;;13.98;;
43628;SDS011;56545;48.224;11.678;2023-03-01T06:15:26;21.25;;;14.32;;
43628;SDS011;56545;48.224;11.678;2023-03-01T06:17:52;22.35;;;14.60;;
43628;SDS011;56545;48.224;11.678;2023-03-01T06:20:22;20.17;;;14.13;;
43628;SDS011;56545;48.224;11.678;2023-03-01T06:22:49;20.95;;;14.40;;
43628;SDS011;56545;48.224;11.678;2023-03-01T06:25:16;22.08;;;14.40;;
43628;SDS011;56545;48.224;11.678;2023-03-01T06:27:45;21.63;;;14.27;;
43628;SDS011;56545;48.224;11.678;2023-03-01T06:30:12;22.30;;;14.85;;
43628;SDS011;56545;48.224;11.678;2023-03-01T06:32:39;20.45;;;14.45;;
43628;SDS011;56545;48.224;11.678;2023-03-01T06:35:09;23.45;;;14.57;;
43628;SDS011;56545;48.224;11.678;2023-03-01T06:37:36;21.83;;;15.35;;
43628;SDS011;56545;48.224;11.678;2023-03-01T06:40:03;24.08;;;15.65;;
43628;SDS011;56545;48.224;11.678;2023-03-01T06:42:33;20.52;;;14.68;;
43628;SDS011;56545;48.224;11.678;2023-03-01T06:44:59;23.73;;;14.55;;
43628;SDS011;56545;48.224;11.678;2023-03-01T06:47:25;21.77;;;14.40;;
43628;SDS011;56545;48.224;11.678;2023-03-01T06:49:51;21.33;;;14.43;;
43628;SDS011;56545;48.224;11.678;2023-03-01T06:52:17;22.98;;;14.45;;
43628;SDS011;56545;48.224;11.678;2023-03-01T06:54:43;19.60;;;14.23;;
43628;SDS011;56545;48.224;11.678;2023-03-01T06:57:09;20.25;;;14.20;;
43628;SDS011;56545;48.224;11.678;2023-03-01T06:59:35;25.63;;;16.98;;
43628;SDS011;56545;48.224;11.678;2023-03-01T07:02:01;22.80;;;14.52;;
43628;SDS011;56545;48.224;11.678;2023-03-01T07:04:27;21.80;;;14.32;;
43628;SDS011;56545;48.224;11.678;2023-03-01T07:06:56;21.63;;;14.15;;
43628;SDS011;56545;48.224;11.678;2023-03-01T07:09:22;23.00;;;15.23;;
43628;SDS011;56545;48.224;11.678;2023-03-01T07:11:49;23.08;;;14.98;;
43628;SDS011;56545;48.224;11.678;2023-03-01T07:14:15;22.27;;;14.80;;
43628;SDS011;56545;48.224;11.678;2023-03-01T07:16:41;27.85;;;17.20;;
43628;SDS011;56545;48.224;11.678;2023-03-01T07:19:07;24.05;;;16.23;;
43628;SDS011;56545;48.224;11.678;2023-03-01T07:21:33;22.58;;;14.50;;
43628;SDS011;56545;48.224;11.678;2023-03-01T07:23:59;26.05;;;15.55;;
43628;SDS011;56545;48.224;11.678;2023-03-01T07:26:25;25.65;;;16.63;;
43628;SDS011;56545;48.224;11.678;2023-03-01T07:28:51;24.80;;;16.40;;
43628;SDS011;56545;48.224;11.678;2023-03-01T07:31:16;23.25;;;15.23;;
43628;SDS011;56545;48.224;11.678;2023-03-01T07:33:42;23.10;;;15.32;;
43628;SDS011;56545;48.224;11.678;2023-03-01T07:36:08;23.35;;;15.73;;
43628;SDS011;56545;48.224;11.678;2023-03-01T07:38:34;22.20;;;15.18;;
43628;SDS011;56545;48.224;11.678;2023-03-01T07:41:01;24.92;;;15.57;;
43628;SDS011;56545;48.224;11.678;2023-03-01T07:43:28;20.85;;;14.98;;
43628;SDS011;56545;48.224;11.678;2023-03-01T07:45:54;22.52;;;15.60;;
43628;SDS011;56545;48.224;11.678;2023-03-01T07:48:24;22.45;;;15.77;;
43628;SDS011;56545;48.224;11.678;2023-03-01T07:50:50;22.20;;;15.50;;
43628;SDS011;56545;48.224;11.678;2023-03-01T07:53:16;20.60;;;15.27;;
43628;SDS011;56545;48.224;11.678;2023-03-01T07:55:41;26.33;;;15.30;;
43628;SDS011;56545;48.224;11.678;2023-03-01T07:58:07;23.00;;;15.48;;
43628;SDS011;56545;48.224;11.678;2023-03-01T08:00:33;27.55;;;15.93;;
43628;SDS011;56545;48.224;11.678;2023-03-01T08:03:00;23.05;;;15.45;;
43628;SDS011;56545;48.224;11.678;2023-03-01T08:05:26;22.52;;;15.18;;
43628;SDS011;56545;48.224;11.678;2023-03-01T08:07:53;25.60;;;16.77;;
43628;SDS011;56545;48.224;11.678;2023-03-01T08:10:19;21.83;;;15.05;;
43628;SDS011;56545;48.224;11.678;2023-03-01T08:12:45;23.48;;;15.85;;
43628;SDS011;56545;48.224;11.678;2023-03-01T08:15:11;21.38;;;15.70;;
43628;SDS011;56545;48.224;11.678;2023-03-01T08:17:37;22.83;;;15.65;;
43628;SDS011;56545;48.224;11.678;2023-03-01T08:20:03;23.65;;;14.95;;
43628;SDS011;56545;48.224;11.678;2023-03-01T08:22:31;23.50;;;15.35;;
43628;SDS011;56545;48.224;11.678;2023-03-01T08:24:57;26.08;;;15.93;;
43628;SDS011;56545;48.224;11.678;2023-03-01T08:27:23;24.60;;;15.82;;
43628;SDS011;56545;48.224;11.678;2023-03-01T08:29:49;21.60;;;15.25;;
43628;SDS011;56545;48.224;11.678;2023-03-01T08:32:15;23.35;;;16.25;;
43628;SDS011;56545;48.224;11.678;2023-03-01T08:34:41;22.63;;;15.40;;
43628;SDS011;56545;48.224;11.678;2023-03-01T08:37:07;22.52;;;16.30;;
43628;SDS011;56545;48.224;11.678;2023-03-01T08:39:33;23.25;;;15.48;;
43628;SDS011;56545;48.224;11.678;2023-03-01T08:41:58;22.95;;;15.50;;
43628;SDS011;56545;48.224;11.678;2023-03-01T08:44:24;24.52;;;15.82;;
43628;SDS011;56545;48.224;11.678;2023-03-01T08:46:50;24.05;;;16.17;;
43628;SDS011;56545;48.224;11.678;2023-03-01T08:49:18;28.00;;;16.67;;
43628;SDS011;56545;48.224;11.678;2023-03-01T08:51:45;22.73;;;16.50;;
43628;SDS011;56545;48.224;11.678;2023-03-01T08:54:14;25.80;;;17.27;;
43628;SDS011;56545;48.224;11.678;2023-03-01T08:56:41;21.58;;;15.93;;
43628;SDS011;56545;48.224;11.678;2023-03-01T08:59:08;25.73;;;17.15;;
43628;SDS011;56545;48.224;11.678;2023-03-01T09:01:37;23.48;;;16.17;;
43628;SDS011;56545;48.224;11.678;2023-03-01T09:04:05;22.52;;;16.08;;
43628;SDS011;56545;48.224;11.678;2023-03-01T09:06:31;24.15;;;16.35;;
43628;SDS011;56545;48.224;11.678;2023-03-01T09:08:58;23.05;;;16.40;;
43628;SDS011;56545;48.224;11.678;2023-03-01T09:11:24;20.90;;;15.20;;
43628;SDS011;56545;48.224;11.678;2023-03-01T09:13:50;23.88;;;15.63;;
43628;SDS011;56545;48.224;11.678;2023-03-01T09:16:18;24.52;;;16.23;;
43628;SDS011;56545;48.224;11.678;2023-03-01T09:18:48;24.77;;;16.08;;
43628;SDS011;56545;48.224;11.678;2023-03-01T09:21:15;24.58;;;15.95;;
43628;SDS011;56545;48.224;11.678;2023-03-01T09:23:43;23.77;;;15.80;;
43628;SDS011;56545;48.224;11.678;2023-03-01T09:26:17;23.92;;;16.40;;
43628;SDS011;56545;48.224;11.678;2023-03-01T09:28:46;24.40;;;17.40;;
43628;SDS011;56545;48.224;11.678;2023-03-01T09:31:14;23.70;;;17.13;;
43628;SDS011;56545;48.224;11.678;2023-03-01T09:33:41;24.73;;;16.98;;
43628;SDS011;56545;48.224;11.678;2023-03-01T09:36:09;23.60;;;16.42;;
43628;SDS011;56545;48.224;11.678;2023-03-01T09:38:38;25.02;;;16.55;;
43628;SDS011;56545;48.224;11.678;2023-03-01T09:41:10;26.85;;;19.52;;
43628;SDS011;56545;48.224;11.678;2023-03-01T09:44:45;24.25;;;16.05;;
43628;SDS011;56545;48.224;11.678;2023-03-01T09:46:53;22.48;;;15.80;;
43628;SDS011;56545;48.224;11.678;2023-03-01T09:49:23;22.70;;;16.15;;
43628;SDS011;56545;48.224;11.678;2023-03-01T09:54:36;21.52;;;15.88;;
43628;SDS011;56545;48.224;11.678;2023-03-01T09:57:06;25.23;;;16.45;;
43628;SDS011;56545;48.224;11.678;2023-03-01T10:05:05;22.55;;;16.60;;
43628;SDS011;56545;48.224;11.678;2023-03-01T10:10:33;22.73;;;16.33;;
43628;SDS011;56545;48.224;11.678;2023-03-01T10:13:25;20.83;;;16.42;;
43628;SDS011;56545;48.224;11.678;2023-03-01T10:15:55;20.65;;;16.42;;
43628;SDS011;56545;48.224;11.678;2023-03-01T10:18:25;25.13;;;17.10;;
43628;SDS011;56545;48.224;11.678;2023-03-01T10:23:22;19.92;;;16.20;;
43628;SDS011;56545;48.224;11.678;2023-03-01T10:31:20;23.27;;;17.03;;
43628;SDS011;56545;48.224;11.678;2023-03-01T10:33:52;21.30;;;15.45;;
43628;SDS011;56545;48.224;11.678;2023-03-01T10:36:20;20.40;;;16.45;;
43628;SDS011;56545;48.224;11.678;2023-03-01T10:38:48;20.33;;;16.80;;
43628;SDS011;56545;48.224;11.678;2023-03-01T10:41:18;20.23;;;16.30;;
43628;SDS011;56545;48.224;11.678;2023-03-01T10:46:22;18.73;;;15.95;;
43628;SDS011;56545;48.224;11.678;2023-03-01T10:51:39;19.48;;;15.45;;
43628;SDS011;56545;48.224;11.678;2023-03-01T10:56:49;19.73;;;15.10;;
43628;SDS011;56545;48.224;11.678;2023-03-01T10:59:28;17.60;;;15.75;;
43628;SDS011;56545;48.224;11.678;2023-03-01T11:07:46;18.13;;;15.27;;
43628;SDS011;56545;48.224;11.678;2023-03-01T11:10:16;16.33;;;14.63;;
43628;SDS011;56545;48.224;11.678;2023-03-01T11:12:43;18.63;;;15.15;;
43628;SDS011;56545;48.224;11.678;2023-03-01T11:15:19;16.05;;;14.45;;
43628;SDS011;56545;48.224;11.678;2023-03-01T11:17:47;18.30;;;14.65;;
43628;SDS011;56545;48.224;11.678;2023-03-01T11:22:47;18.52;;;16.30;;
43628;SDS011;56545;48.224;11.678;2023-03-01T11:25:17;16.40;;;14.70;;
43628;SDS011;56545;48.224;11.678;2023-03-01T11:27:48;15.68;;;13.82;;
43628;SDS011;56545;48.224;11.678;2023-03-01T11:30:21;16.17;;;14.52;;
43628;SDS011;56545;48.224;11.678;2023-03-01T11:32:52;16.13;;;14.35;;
43628;SDS011;56545;48.224;11.678;2023-03-01T11:35:37;16.60;;;14.70;;
43628;SDS011;56545;48.224;11.678;2023-03-01T11:38:26;15.27;;;13.77;;
43628;SDS011;56545;48.224;11.678;2023-03-01T11:41:07;15.68;;;14.18;;
43628;SDS011;56545;48.224;11.678;2023-03-01T11:43:43;15.20;;;13.68;;
43628;SDS011;56545;48.224;11.678;2023-03-01T11:52:01;15.82;;;14.02;;
43628;SDS011;56545;48.224;11.678;2023-03-01T11:54:35;16.00;;;14.23;;
43628;SDS011;56545;48.224;11.678;2023-03-01T11:57:18;16.00;;;13.95;;
43628;SDS011;56545;48.224;11.678;2023-03-01T12:00:14;16.00;;;14.38;;
43628;SDS011;56545;48.224;11.678;2023-03-01T12:02:51;16.65;;;14.90;;
43628;SDS011;56545;48.224;11.678;2023-03-01T12:08:34;16.63;;;14.93;;
43628;SDS011;56545;48.224;11.678;2023-03-01T12:14:27;16.23;;;14.63;;
43628;SDS011;56545;48.224;11.678;2023-03-01T12:17:30;17.30;;;15.50;;
43628;SDS011;56545;48.224;11.678;2023-03-01T12:26:13;16.35;;;14.63;;
43628;SDS011;56545;48.224;11.678;2023-03-01T12:31:51;16.52;;;14.77;;
43628;SDS011;56545;48.224;11.678;2023-03-01T12:46:04;16.60;;;14.63;;
43628;SDS011;56545;48.224;11.678;2023-03-01T12:53:47;16.73;;;14.93;;
43628;SDS011;56545;48.224;11.678;2023-03-01T12:56:21;16.75;;;14.65;;
43628;SDS011;56545;48.224;11.678;2023-03-01T13:04:49;17.88;;;16.08;;
43628;SDS011;56545;48.224;11.678;2023-03-01T13:12:41;16.73;;;14.93;;
43628;SDS011;56545;48.224;11.678;2023-03-01T13:17:49;17.38;;;14.77;;
43628;SDS011;56545;48.224;11.678;2023-03-01T13:20:18;17.35;;;15.13;;
43628;SDS011;56545;48.224;11.678;2023-03-01T13:22:46;18.52;;;15.00;;
43628;SDS011;56545;48.224;11.678;2023-03-01T13:25:19;17.65;;;15.73;;
43628;SDS011;56545;48.224;11.678;2023-03-01T13:27:46;18.13;;;15.25;;
43628;SDS011;56545;48.224;11.678;2023-03-01T13:46:53;21.48;;;15.75;;
43628;SDS011;56545;48.224;11.678;2023-03-01T13:49:27;18.60;;;14.98;;
43628;SDS011;56545;48.224;11.678;2023-03-01T13:54:26;20.88;;;15.43;;
43628;SDS011;56545;48.224;11.678;2023-03-01T13:56:58;19.38;;;15.98;;
43628;SDS011;56545;48.224;11.678;2023-03-01T13:59:25;17.63;;;14.45;;
43628;SDS011;56545;48.224;11.678;2023-03-01T14:01:52;22.10;;;16.38;;
43628;SDS011;56545;48.224;11.678;2023-03-01T14:04:24;21.33;;;15.60;;
43628;SDS011;56545;48.224;11.678;2023-03-01T14:06:50;19.45;;;15.35;;
43628;SDS011;56545;48.224;11.678;2023-03-01T14:11:56;20.98;;;15.52;;
43628;SDS011;56545;48.224;11.678;2023-03-01T14:20:09;18.75;;;14.75;;
43628;SDS011;56545;48.224;11.678;2023-03-01T14:22:38;18.70;;;14.38;;
43628;SDS011;56545;48.224;11.678;2023-03-01T14:25:21;21.80;;;15.25;;
43628;SDS011;56545;48.224;11.678;2023-03-01T14:30:38;18.38;;;14.98;;
43628;SDS011;56545;48.224;11.678;2023-03-01T14:33:20;20.17;;;15.15;;
43628;SDS011;56545;48.224;11.678;2023-03-01T14:35:53;19.87;;;15.80;;
43628;SDS011;56545;48.224;11.678;2023-03-01T14:38:20;21.58;;;15.05;;
43628;SDS011;56545;48.224;11.678;2023-03-01T14:40:48;17.67;;;13.77;;
43628;SDS011;56545;48.224;11.678;2023-03-01T14:43:21;20.23;;;15.50;;
43628;SDS011;56545;48.224;11.678;2023-03-01T14:45:50;18.40;;;15.15;;
43628;SDS011;56545;48.224;11.678;2023-03-01T14:48:16;22.85;;;14.45;;
43628;SDS011;56545;48.224;11.678;2023-03-01T14:50:43;20.25;;;14.95;;
43628;SDS011;56545;48.224;11.678;2023-03-01T14:53:29;17.35;;;13.80;;
43628;SDS011;56545;48.224;11.678;2023-03-01T14:55:56;18.17;;;14.15;;
43628;SDS011;56545;48.224;11.678;2023-03-01T14:58:29;18.00;;;13.98;;
43628;SDS011;56545;48.224;11.678;2023-03-01T15:01:02;18.98;;;14.10;;
43628;SDS011;56545;48.224;11.678;2023-03-01T15:03:42;18.67;;;13.40;;
43628;SDS011;56545;48.224;11.678;2023-03-01T15:06:11;17.77;;;13.35;;
43628;SDS011;56545;48.224;11.678;2023-03-01T15:08:43;19.15;;;13.75;;
43628;SDS011;56545;48.224;11.678;2023-03-01T15:11:22;19.63;;;13.90;;
43628;SDS011;56545;48.224;11.678;2023-03-01T15:13:52;20.58;;;14.00;;
43628;SDS011;56545;48.224;11.678;2023-03-01T15:16:19;18.65;;;13.80;;
43628;SDS011;56545;48.224;11.678;2023-03-01T15:18:53;18.65;;;14.50;;
43628;SDS011;56545;48.224;11.678;2023-03-01T15:21:27;19.80;;;14.32;;
43628;SDS011;56545;48.224;11.678;2023-03-01T15:24:06;19.13;;;13.53;;
43628;SDS011;56545;48.224;11.678;2023-03-01T15:26:52;18.48;;;13.85;;
43628;SDS011;56545;48.224;11.678;2023-03-01T15:29:22;18.17;;;13.32;;
43628;SDS011;56545;48.224;11.678;2023-03-01T15:31:56;17.02;;;12.52;;
43628;SDS011;56545;48.224;11.678;2023-03-01T15:34:29;15.85;;;12.88;;
43628;SDS011;56545;48.224;11.678;2023-03-01T15:36:58;16.30;;;12.27;;
43628;SDS011;56545;48.224;11.678;2023-03-01T15:47:46;17.48;;;12.25;;
43628;SDS011;56545;48.224;11.678;2023-03-01T15:50:56;17.63;;;11.88;;
43628;SDS011;56545;48.224;11.678;2023-03-01T15:53:05;18.40;;;12.15;;
43628;SDS011;56545;48.224;11.678;2023-03-01T15:55:36;16.98;;;12.50;;
43628;SDS011;56545;48.224;11.678;2023-03-01T15:58:04;16.90;;;12.18;;
43628;SDS011;56545;48.224;11.678;2023-03-01T16:00:45;18.13;;;12.60;;
43628;SDS011;56545;48.224;11.678;2023-03-01T16:03:14;17.25;;;12.02;;
43628;SDS011;56545;48.224;11.678;2023-03-01T16:05:46;18.63;;;12.50;;
43628;SDS011;56545;48.224;11.678;2023-03-01T16:08:15;15.90;;;11.27;;
43628;SDS011;56545;48.224;11.678;2023-03-01T16:10:42;15.77;;;12.32;;
43628;SDS011;56545;48.224;11.678;2023-03-01T16:13:09;16.95;;;11.95;;
43628;SDS011;56545;48.224;11.678;2023-03-01T16:15:36;19.98;;;12.30;;
43628;SDS011;56545;48.224;11.678;2023-03-01T16:18:02;16.83;;;11.57;;
43628;SDS011;56545;48.224;11.678;2023-03-01T16:20:30;16.90;;;11.70;;
43628;SDS011;56545;48.224;11.678;2023-03-01T16:23:03;16.75;;;12.23;;
43628;SDS011;56545;48.224;11.678;2023-03-01T16:25:31;16.52;;;11.30;;
43628;SDS011;56545;48.224;11.678;2023-03-01T16:27:58;17.27;;;11.77;;
43628;SDS011;56545;48.224;11.678;2023-03-01T16:30:26;15.93;;;11.82;;
43628;SDS011;56545;48.224;11.678;2023-03-01T16:32:52;15.98;;;11.40;;